sensor_id;sensor_type;location;lat;lon;timestamp;P1;durP1;ratioP1;P2;durP2;ratioP2
63621;SDS011;49770;47.544;19.074;2023-04-03T04:11:51;9.05;;;5.95;;
63621;SDS011;49770;47.544;19.074;2023-04-03T04:14:54;9.30;;;5.28;;
63621;SDS011;49770;47.544;19.074;2023-04-03T04:17:57;8.30;;;5.45;;
63621;SDS011;49770;47.544;19.074;2023-04-03T04:21:00;7.65;;;5.18;;
63621;SDS011;49770;47.544;19.074;2023-04-03T04:24:03;9.05;;;6.10;;
63621;SDS011;49770;47.544;19.074;2023-04-03T04:27:06;9.13;;;5.65;;
63621;SDS011;49770;47.544;19.074;2023-04-03T04:30:09;7.82;;;5.57;;
63621;SDS011;49770;47.544;19.074;2023-04-03T04:33:14;8.27;;;5.80;;
63621;SDS011;49770;47.544;19.074;2023-04-03T04:36:17;8.43;;;5.93;;
63621;SDS011;49770;47.544;19.074;2023-04-03T04:39:20;7.12;;;5.25;;
63621;SDS011;49770;47.544;19.074;2023-04-03T04:42:23;7.97;;;5.87;;
63621;SDS011;49770;47.544;19.074;2023-04-03T04:45:26;8.63;;;5.72;;
63621;SDS011;49770;47.544;19.074;2023-04-03T04:48:29;8.38;;;5.93;;
63621;SDS011;49770;47.544;19.074;2023-04-03T04:51:34;9.32;;;5.60;;
63621;SDS011;49770;47.544;19.074;2023-04-03T04:54:52;8.45;;;5.75;;
63621;SDS011;49770;47.544;19.074;2023-04-03T04:57:55;8.13;;;5.87;;
63621;SDS011;49770;47.544;19.074;2023-04-03T05:01:02;9.80;;;6.15;;
63621;SDS011;49770;47.544;19.074;2023-04-03T05:04:09;7.27;;;5.60;;
63621;SDS011;49770;47.544;19.074;2023-04-03T05:07:12;7.50;;;5.95;;
63621;SDS011;49770;47.544;19.074;2023-04-03T05:10:16;7.95;;;5.80;;
63621;SDS011;49770;47.544;19.074;2023-04-03T05:13:28;12.43;;;5.97;;
63621;SDS011;49770;47.544;19.074;2023-04-03T05:16:31;7.75;;;5.75;;
63621;SDS011;49770;47.544;19.074;2023-04-03T05:19:35;7.47;;;5.40;;
63621;SDS011;49770;47.544;19.074;2023-04-03T05:22:38;7.45;;;5.60;;
63621;SDS011;49770;47.544;19.074;2023-04-03T05:25:42;8.60;;;6.20;;
63621;SDS011;49770;47.544;19.074;2023-04-03T05:28:47;7.35;;;5.60;;
63621;SDS011;49770;47.544;19.074;2023-04-03T05:31:50;8.75;;;5.60;;
63621;SDS011;49770;47.544;19.074;2023-04-03T05:34:53;7.53;;;5.60;;
63621;SDS011;49770;47.544;19.074;2023-04-03T05:37:56;7.57;;;5.47;;
63621;SDS011;49770;47.544;19.074;2023-04-03T05:40:59;8.40;;;5.57;;
63621;SDS011;49770;47.544;19.074;2023-04-03T05:44:02;7.40;;;5.30;;
63621;SDS011;49770;47.544;19.074;2023-04-03T05:47:05;7.30;;;5.30;;
63621;SDS011;49770;47.544;19.074;2023-04-03T05:50:08;7.65;;;5.78;;
63621;SDS011;49770;47.544;19.074;2023-04-03T05:53:16;8.98;;;5.80;;
63621;SDS011;49770;47.544;19.074;2023-04-03T05:56:24;7.35;;;5.45;;
63621;SDS011;49770;47.544;19.074;2023-04-03T05:59:27;6.72;;;5.50;;
63621;SDS011;49770;47.544;19.074;2023-04-03T06:02:30;7.12;;;5.32;;
63621;SDS011;49770;47.544;19.074;2023-04-03T06:05:35;9.27;;;5.47;;
63621;SDS011;49770;47.544;19.074;2023-04-03T06:08:38;8.00;;;5.43;;
63621;SDS011;49770;47.544;19.074;2023-04-03T06:11:42;9.90;;;5.55;;
63621;SDS011;49770;47.544;19.074;2023-04-03T06:14:44;9.98;;;5.55;;
63621;SDS011;49770;47.544;19.074;2023-04-03T06:17:48;7.30;;;5.15;;
63621;SDS011;49770;47.544;19.074;2023-04-03T06:20:51;5.40;;;4.87;;
63621;SDS011;49770;47.544;19.074;2023-04-03T06:23:54;7.80;;;4.87;;
63621;SDS011;49770;47.544;19.074;2023-04-03T06:26:57;8.40;;;4.97;;
63621;SDS011;49770;47.544;19.074;2023-04-03T06:30:01;7.25;;;4.85;;
63621;SDS011;49770;47.544;19.074;2023-04-03T06:33:04;5.93;;;4.55;;
63621;SDS011;49770;47.544;19.074;2023-04-03T06:36:09;10.13;;;4.75;;
63621;SDS011;49770;47.544;19.074;2023-04-03T06:39:13;5.70;;;4.30;;
63621;SDS011;49770;47.544;19.074;2023-04-03T06:42:18;6.57;;;4.70;;
63621;SDS011;49770;47.544;19.074;2023-04-03T06:45:20;6.22;;;4.20;;
63621;SDS011;49770;47.544;19.074;2023-04-03T06:48:24;5.57;;;4.25;;
63621;SDS011;49770;47.544;19.074;2023-04-03T06:51:27;6.87;;;3.40;;
63621;SDS011;49770;47.544;19.074;2023-04-03T06:54:32;3.70;;;3.30;;
63621;SDS011;49770;47.544;19.074;2023-04-03T06:57:35;4.75;;;3.62;;
63621;SDS011;49770;47.544;19.074;2023-04-03T07:00:39;3.53;;;3.22;;
63621;SDS011;49770;47.544;19.074;2023-04-03T07:03:41;5.57;;;3.45;;
63621;SDS011;49770;47.544;19.074;2023-04-03T07:06:45;3.65;;;3.10;;
63621;SDS011;49770;47.544;19.074;2023-04-03T07:09:49;3.35;;;2.87;;
63621;SDS011;49770;47.544;19.074;2023-04-03T07:12:52;3.30;;;3.00;;
63621;SDS011;49770;47.544;19.074;2023-04-03T07:15:55;4.07;;;3.00;;
63621;SDS011;49770;47.544;19.074;2023-04-03T07:18:59;4.07;;;3.15;;
63621;SDS011;49770;47.544;19.074;2023-04-03T07:22:01;6.47;;;3.05;;
63621;SDS011;49770;47.544;19.074;2023-04-03T07:25:04;3.33;;;2.85;;
63621;SDS011;49770;47.544;19.074;2023-04-03T07:28:09;3.12;;;2.60;;
63621;SDS011;49770;47.544;19.074;2023-04-03T07:31:12;4.57;;;2.92;;
63621;SDS011;49770;47.544;19.074;2023-04-03T07:34:19;4.20;;;2.83;;
63621;SDS011;49770;47.544;19.074;2023-04-03T07:37:22;3.28;;;2.45;;
63621;SDS011;49770;47.544;19.074;2023-04-03T07:40:24;3.37;;;2.62;;
63621;SDS011;49770;47.544;19.074;2023-04-03T07:43:27;3.75;;;2.65;;
63621;SDS011;49770;47.544;19.074;2023-04-03T07:46:31;2.60;;;2.40;;
63621;SDS011;49770;47.544;19.074;2023-04-03T07:49:35;2.40;;;2.20;;
63621;SDS011;49770;47.544;19.074;2023-04-03T07:52:41;2.30;;;2.10;;
63621;SDS011;49770;47.544;19.074;2023-04-03T07:55:46;2.58;;;2.37;;
63621;SDS011;49770;47.544;19.074;2023-04-03T07:58:49;2.90;;;2.60;;
63621;SDS011;49770;47.544;19.074;2023-04-03T08:01:53;2.90;;;2.60;;
63621;SDS011;49770;47.544;19.074;2023-04-03T08:04:56;2.50;;;2.30;;
63621;SDS011;49770;47.544;19.074;2023-04-03T08:07:59;2.95;;;2.75;;
63621;SDS011;49770;47.544;19.074;2023-04-03T08:11:02;2.85;;;2.60;;
63621;SDS011;49770;47.544;19.074;2023-04-03T08:14:07;2.80;;;2.50;;
63621;SDS011;49770;47.544;19.074;2023-04-03T08:17:10;2.58;;;2.37;;
63621;SDS011;49770;47.544;19.074;2023-04-03T08:20:16;2.75;;;2.50;;
63621;SDS011;49770;47.544;19.074;2023-04-03T08:23:19;2.55;;;2.35;;
63621;SDS011;49770;47.544;19.074;2023-04-03T08:26:22;2.83;;;2.53;;
63621;SDS011;49770;47.544;19.074;2023-04-03T08:29:25;2.87;;;2.28;;
63621;SDS011;49770;47.544;19.074;2023-04-03T08:32:28;2.53;;;2.33;;
63621;SDS011;49770;47.544;19.074;2023-04-03T08:35:31;2.67;;;2.10;;
63621;SDS011;49770;47.544;19.074;2023-04-03T08:38:34;2.15;;;2.03;;
63621;SDS011;49770;47.544;19.074;2023-04-03T08:51:24;2.42;;;2.22;;
63621;SDS011;49770;47.544;19.074;2023-04-03T08:54:30;3.80;;;2.47;;
63621;SDS011;49770;47.544;19.074;2023-04-03T08:57:39;4.03;;;2.30;;
63621;SDS011;49770;47.544;19.074;2023-04-03T09:00:46;2.30;;;2.10;;
63621;SDS011;49770;47.544;19.074;2023-04-03T09:03:49;2.40;;;2.20;;
63621;SDS011;49770;47.544;19.074;2023-04-03T09:06:54;2.65;;;1.83;;
63621;SDS011;49770;47.544;19.074;2023-04-03T09:10:00;1.80;;;1.70;;
63621;SDS011;49770;47.544;19.074;2023-04-03T09:13:06;5.60;;;2.28;;
63621;SDS011;49770;47.544;19.074;2023-04-03T09:23:40;1.95;;;1.85;;
63621;SDS011;49770;47.544;19.074;2023-04-03T09:26:51;2.22;;;2.12;;
63621;SDS011;49770;47.544;19.074;2023-04-03T09:29:58;7.47;;;2.15;;
63621;SDS011;49770;47.544;19.074;2023-04-03T09:33:01;2.62;;;2.40;;
63621;SDS011;49770;47.544;19.074;2023-04-03T09:36:04;2.75;;;1.90;;
63621;SDS011;49770;47.544;19.074;2023-04-03T09:39:15;2.05;;;1.95;;
63621;SDS011;49770;47.544;19.074;2023-04-03T09:42:21;2.25;;;2.05;;
63621;SDS011;49770;47.544;19.074;2023-04-03T09:48:30;2.03;;;1.92;;
63621;SDS011;49770;47.544;19.074;2023-04-03T09:51:33;2.40;;;2.20;;
63621;SDS011;49770;47.544;19.074;2023-04-03T09:54:39;3.62;;;2.80;;
63621;SDS011;49770;47.544;19.074;2023-04-03T09:57:44;2.70;;;1.70;;
63621;SDS011;49770;47.544;19.074;2023-04-03T10:00:53;1.70;;;1.60;;
63621;SDS011;49770;47.544;19.074;2023-04-03T10:11:06;2.22;;;2.03;;
63621;SDS011;49770;47.544;19.074;2023-04-03T10:14:16;2.20;;;2.00;;
63621;SDS011;49770;47.544;19.074;2023-04-03T10:20:47;1.98;;;1.80;;
63621;SDS011;49770;47.544;19.074;2023-04-03T10:24:05;1.70;;;1.50;;
63621;SDS011;49770;47.544;19.074;2023-04-03T10:27:11;1.90;;;1.70;;
63621;SDS011;49770;47.544;19.074;2023-04-03T10:33:53;4.40;;;1.55;;
63621;SDS011;49770;47.544;19.074;2023-04-03T10:43:59;1.70;;;1.60;;
63621;SDS011;49770;47.544;19.074;2023-04-03T10:47:26;1.62;;;1.50;;
63621;SDS011;49770;47.544;19.074;2023-04-03T10:54:04;2.10;;;1.80;;
63621;SDS011;49770;47.544;19.074;2023-04-03T10:57:11;3.58;;;1.70;;
63621;SDS011;49770;47.544;19.074;2023-04-03T11:00:20;1.62;;;1.52;;
63621;SDS011;49770;47.544;19.074;2023-04-03T11:03:31;1.60;;;1.50;;
63621;SDS011;49770;47.544;19.074;2023-04-03T11:06:47;1.50;;;1.40;;
63621;SDS011;49770;47.544;19.074;2023-04-03T11:09:55;1.58;;;1.45;;
63621;SDS011;49770;47.544;19.074;2023-04-03T11:16:36;1.48;;;1.37;;
63621;SDS011;49770;47.544;19.074;2023-04-03T11:20:00;2.58;;;1.80;;
63621;SDS011;49770;47.544;19.074;2023-04-03T11:26:40;1.75;;;1.40;;
63621;SDS011;49770;47.544;19.074;2023-04-03T11:29:44;1.60;;;1.50;;
63621;SDS011;49770;47.544;19.074;2023-04-03T11:35:52;1.70;;;1.60;;
63621;SDS011;49770;47.544;19.074;2023-04-03T11:39:02;1.42;;;1.30;;
63621;SDS011;49770;47.544;19.074;2023-04-03T11:42:34;1.40;;;1.30;;
63621;SDS011;49770;47.544;19.074;2023-04-03T11:48:51;2.25;;;1.50;;
63621;SDS011;49770;47.544;19.074;2023-04-03T11:51:55;2.72;;;1.70;;
63621;SDS011;49770;47.544;19.074;2023-04-03T11:54:59;1.40;;;1.30;;
63621;SDS011;49770;47.544;19.074;2023-04-03T11:58:12;1.75;;;1.62;;
63621;SDS011;49770;47.544;19.074;2023-04-03T12:01:42;1.90;;;0.95;;
63621;SDS011;49770;47.544;19.074;2023-04-03T12:11:35;2.15;;;1.45;;
63621;SDS011;49770;47.544;19.074;2023-04-03T12:14:39;1.48;;;1.37;;
63621;SDS011;49770;47.544;19.074;2023-04-03T12:17:42;3.08;;;1.58;;
63621;SDS011;49770;47.544;19.074;2023-04-03T12:23:59;3.40;;;1.60;;
63621;SDS011;49770;47.544;19.074;2023-04-03T12:27:33;1.58;;;1.48;;
63621;SDS011;49770;47.544;19.074;2023-04-03T12:30:40;1.75;;;1.65;;
63621;SDS011;49770;47.544;19.074;2023-04-03T12:33:58;1.50;;;1.40;;
63621;SDS011;49770;47.544;19.074;2023-04-03T12:47:14;1.37;;;1.27;;
63621;SDS011;49770;47.544;19.074;2023-04-03T12:50:28;1.65;;;1.48;;
63621;SDS011;49770;47.544;19.074;2023-04-03T12:53:36;3.30;;;1.83;;
63621;SDS011;49770;47.544;19.074;2023-04-03T12:56:41;1.67;;;1.58;;
63621;SDS011;49770;47.544;19.074;2023-04-03T12:59:43;1.40;;;1.30;;
63621;SDS011;49770;47.544;19.074;2023-04-03T13:02:49;1.70;;;1.55;;
63621;SDS011;49770;47.544;19.074;2023-04-03T13:05:52;1.50;;;1.30;;
63621;SDS011;49770;47.544;19.074;2023-04-03T13:09:00;1.70;;;1.40;;
63621;SDS011;49770;47.544;19.074;2023-04-03T13:12:08;1.85;;;1.70;;
63621;SDS011;49770;47.544;19.074;2023-04-03T13:16:00;1.70;;;1.60;;
63621;SDS011;49770;47.544;19.074;2023-04-03T13:22:03;3.12;;;1.52;;
63621;SDS011;49770;47.544;19.074;2023-04-03T13:25:11;3.58;;;1.67;;
63621;SDS011;49770;47.544;19.074;2023-04-03T13:28:18;2.55;;;1.45;;
63621;SDS011;49770;47.544;19.074;2023-04-03T13:31:25;1.40;;;1.30;;
63621;SDS011;49770;47.544;19.074;2023-04-03T13:34:40;1.55;;;1.23;;
63621;SDS011;49770;47.544;19.074;2023-04-03T13:37:55;2.50;;;1.40;;
63621;SDS011;49770;47.544;19.074;2023-04-03T13:41:05;2.58;;;1.65;;
63621;SDS011;49770;47.544;19.074;2023-04-03T13:44:30;3.80;;;1.42;;
63621;SDS011;49770;47.544;19.074;2023-04-03T13:47:40;1.67;;;1.58;;
63621;SDS011;49770;47.544;19.074;2023-04-03T13:54:01;2.85;;;1.23;;
63621;SDS011;49770;47.544;19.074;2023-04-03T13:57:21;1.62;;;1.52;;
63621;SDS011;49770;47.544;19.074;2023-04-03T14:03:40;1.58;;;1.48;;
63621;SDS011;49770;47.544;19.074;2023-04-03T14:06:42;1.95;;;1.50;;
63621;SDS011;49770;47.544;19.074;2023-04-03T14:09:46;1.77;;;1.58;;
63621;SDS011;49770;47.544;19.074;2023-04-03T14:12:49;2.03;;;1.52;;
63621;SDS011;49770;47.544;19.074;2023-04-03T14:15:53;1.52;;;1.42;;
63621;SDS011;49770;47.544;19.074;2023-04-03T14:18:59;2.42;;;1.40;;
63621;SDS011;49770;47.544;19.074;2023-04-03T14:25:25;1.37;;;1.27;;
63621;SDS011;49770;47.544;19.074;2023-04-03T14:28:31;1.50;;;1.30;;
63621;SDS011;49770;47.544;19.074;2023-04-03T14:31:34;1.80;;;1.70;;
63621;SDS011;49770;47.544;19.074;2023-04-03T14:34:37;1.75;;;1.60;;
63621;SDS011;49770;47.544;19.074;2023-04-03T14:37:40;2.45;;;1.77;;
63621;SDS011;49770;47.544;19.074;2023-04-03T14:40:46;1.73;;;1.62;;
63621;SDS011;49770;47.544;19.074;2023-04-03T14:43:50;2.03;;;1.40;;
63621;SDS011;49770;47.544;19.074;2023-04-03T14:46:53;1.85;;;1.75;;
63621;SDS011;49770;47.544;19.074;2023-04-03T14:50:02;2.17;;;1.92;;
63621;SDS011;49770;47.544;19.074;2023-04-03T14:53:07;1.90;;;1.80;;
63621;SDS011;49770;47.544;19.074;2023-04-03T14:56:19;2.75;;;2.28;;
63621;SDS011;49770;47.544;19.074;2023-04-03T14:59:26;1.70;;;1.52;;
63621;SDS011;49770;47.544;19.074;2023-04-03T15:02:33;1.90;;;1.70;;
63621;SDS011;49770;47.544;19.074;2023-04-03T15:05:38;2.00;;;1.77;;
63621;SDS011;49770;47.544;19.074;2023-04-03T15:08:41;2.80;;;2.03;;
63621;SDS011;49770;47.544;19.074;2023-04-03T15:11:46;2.15;;;1.58;;
63621;SDS011;49770;47.544;19.074;2023-04-03T15:14:49;2.47;;;2.00;;
